createdAt,value
2023-08-18T00:01:26.957Z,16.40
2023-08-18T00:03:29.521Z,16.40
2023-08-18T00:05:32.097Z,16.50
2023-08-18T00:07:34.814Z,16.40
2023-08-18T00:09:37.459Z,16.40
2023-08-18T00:11:39.897Z,16.40
2023-08-18T00:13:44.943Z,16.40
2023-08-18T00:15:47.562Z,16.40
2023-08-18T00:17:50.119Z,16.30
2023-08-18T00:19:52.749Z,16.30
2023-08-18T00:21:55.331Z,16.30
2023-08-18T00:23:57.815Z,16.30
2023-08-18T00:26:00.599Z,16.20
2023-08-18T00:28:03.829Z,16.20
2023-08-18T00:30:11.569Z,16.10
2023-08-18T00:32:14.861Z,16.10
2023-08-18T00:34:17.375Z,16.10
2023-08-18T00:36:19.801Z,16.10
2023-08-18T00:38:22.338Z,16.00
2023-08-18T00:40:25.193Z,16.00
2023-08-18T00:42:27.897Z,16.00
2023-08-18T00:44:30.377Z,16.00
2023-08-18T00:46:37.501Z,16.00
2023-08-18T00:48:40.916Z,16.10
2023-08-18T00:50:44.251Z,16.10
2023-08-18T00:52:53.624Z,16.10
2023-08-18T00:54:56.444Z,16.10
2023-08-18T00:56:59.185Z,16.10
2023-08-18T00:59:02.533Z,16.10
2023-08-18T01:01:05.628Z,16.20
2023-08-18T01:03:11.287Z,16.10
2023-08-18T01:05:13.956Z,16.10
2023-08-18T01:07:16.461Z,16.20
2023-08-18T01:09:18.974Z,16.20
2023-08-18T01:11:27.345Z,16.20
2023-08-18T01:13:39.970Z,16.20
2023-08-18T01:15:46.128Z,16.20
2023-08-18T01:17:53.054Z,16.20
2023-08-18T01:19:58.986Z,16.20
2023-08-18T01:22:04.117Z,16.20
2023-08-18T01:24:10.116Z,16.20
2023-08-18T01:26:14.584Z,16.20
2023-08-18T01:28:17.545Z,16.20
2023-08-18T01:30:22.238Z,16.20
2023-08-18T01:32:30.120Z,16.10
2023-08-18T01:34:34.562Z,16.20
2023-08-18T01:36:40.258Z,16.20
2023-08-18T01:38:44.364Z,16.20
2023-08-18T01:40:49.879Z,16.20
2023-08-18T01:42:53.813Z,16.20
2023-08-18T01:45:01.835Z,16.20
2023-08-18T01:47:04.343Z,16.20
2023-08-18T01:49:10.314Z,16.20
2023-08-18T01:51:12.880Z,16.20
2023-08-18T01:53:15.465Z,16.20
2023-08-18T01:55:18.098Z,16.20
2023-08-18T01:57:23.152Z,16.20
2023-08-18T01:59:25.691Z,16.20
2023-08-18T02:01:29.043Z,16.20
2023-08-18T02:03:31.657Z,16.20
2023-08-18T02:05:34.269Z,16.10
2023-08-18T02:07:39.216Z,16.10
2023-08-18T02:09:42.107Z,16.10
2023-08-18T02:11:45.619Z,16.00
2023-08-18T02:13:50.752Z,16.00
2023-08-18T02:15:53.312Z,16.00
2023-08-18T02:17:55.891Z,16.00
2023-08-18T02:20:01.499Z,15.90
2023-08-18T02:22:04.108Z,15.90
2023-08-18T02:24:07.068Z,15.90
2023-08-18T02:26:10.904Z,15.90
2023-08-18T02:28:13.334Z,16.00
2023-08-18T02:30:18.590Z,16.00
2023-08-18T02:32:21.195Z,15.90
2023-08-18T02:34:23.814Z,16.00
2023-08-18T02:36:26.274Z,16.00
2023-08-18T02:38:29.763Z,16.00
2023-08-18T02:40:32.208Z,16.00
2023-08-18T02:42:35.236Z,16.00
2023-08-18T02:44:37.650Z,16.00
2023-08-18T02:46:42.727Z,16.00
2023-08-18T02:48:45.236Z,16.10
2023-08-18T02:50:47.738Z,16.10
2023-08-18T02:52:50.219Z,16.10
2023-08-18T02:54:52.804Z,16.10
2023-08-18T02:56:55.910Z,16.10
2023-08-18T02:58:59.711Z,16.20
2023-08-18T03:01:06.479Z,16.20
2023-08-18T03:03:12.544Z,16.20
2023-08-18T03:05:15.302Z,16.20
2023-08-18T03:07:21.361Z,16.20
2023-08-18T03:09:26.113Z,16.20
2023-08-18T03:11:28.893Z,16.20
2023-08-18T03:13:31.950Z,16.30
2023-08-18T03:15:40.081Z,16.30
2023-08-18T03:17:42.684Z,16.30
2023-08-18T03:19:47.812Z,16.30
2023-08-18T03:21:50.244Z,16.30
2023-08-18T03:23:52.856Z,16.30
2023-08-18T03:26:00.543Z,16.30
2023-08-18T03:28:04.362Z,16.30
2023-08-18T03:30:08.557Z,16.30
2023-08-18T03:32:10.820Z,16.40
2023-08-18T03:34:13.384Z,16.40
2023-08-18T03:36:18.574Z,16.40
2023-08-18T03:38:21.148Z,16.40
2023-08-18T03:40:23.627Z,16.40
2023-08-18T03:42:26.038Z,16.40
2023-08-18T03:44:28.726Z,16.40
2023-08-18T03:46:31.688Z,16.40
2023-08-18T03:48:36.475Z,16.40
2023-08-18T03:50:40.178Z,16.40
2023-08-18T03:52:45.320Z,16.40
2023-08-18T03:54:48.074Z,16.40
2023-08-18T03:56:52.033Z,16.40
2023-08-18T03:58:54.707Z,16.40
2023-08-18T04:01:02.874Z,16.40
2023-08-18T04:03:06.108Z,16.40
2023-08-18T04:05:09.592Z,16.40
2023-08-18T04:07:12.031Z,16.40
2023-08-18T04:09:17.614Z,16.40
2023-08-18T04:11:20.058Z,16.40
2023-08-18T04:13:22.647Z,16.40
2023-08-18T04:15:25.296Z,16.40
2023-08-18T04:17:27.993Z,16.40
2023-08-18T04:19:31.072Z,16.50
2023-08-18T04:21:34.074Z,16.50
2023-08-18T04:23:36.918Z,16.50
2023-08-18T04:25:43.423Z,16.50
2023-08-18T04:27:46.725Z,16.50
2023-08-18T04:29:49.817Z,16.50
2023-08-18T04:31:52.338Z,16.50
2023-08-18T04:33:56.063Z,16.50
2023-08-18T04:36:02.523Z,16.50
2023-08-18T04:38:07.207Z,16.50
2023-08-18T04:40:10.718Z,16.50
2023-08-18T04:42:15.840Z,16.50
2023-08-18T04:44:18.264Z,16.50
2023-08-18T04:46:21.811Z,16.50
2023-08-18T04:48:25.204Z,16.50
2023-08-18T04:50:28.137Z,16.60
2023-08-18T04:52:30.937Z,16.60
2023-08-18T04:54:33.722Z,16.60
2023-08-18T04:56:36.382Z,16.60
2023-08-18T04:58:41.579Z,16.60
2023-08-18T05:00:45.246Z,16.60
2023-08-18T05:02:49.227Z,16.60
2023-08-18T05:04:52.049Z,16.60
2023-08-18T05:06:55.296Z,16.60
2023-08-18T05:08:58.331Z,16.60
2023-08-18T05:11:05.517Z,16.60
2023-08-18T05:13:08.029Z,16.60
2023-08-18T05:15:14.187Z,16.60
2023-08-18T05:17:16.806Z,16.60
2023-08-18T05:19:19.307Z,16.60
2023-08-18T05:21:21.889Z,16.60
2023-08-18T05:23:24.589Z,16.70
2023-08-18T05:25:28.055Z,16.60
2023-08-18T05:27:31.407Z,16.60
2023-08-18T05:29:33.804Z,16.70
2023-08-18T05:31:38.931Z,16.70
2023-08-18T05:33:41.395Z,16.70
2023-08-18T05:35:44.544Z,16.70
2023-08-18T05:37:46.969Z,16.70
2023-08-18T05:39:49.604Z,16.70
2023-08-18T05:41:52.130Z,16.70
2023-08-18T05:43:54.714Z,16.70
2023-08-18T05:45:57.240Z,16.70
2023-08-18T05:48:02.431Z,16.70
2023-08-18T05:50:06.582Z,16.70
2023-08-18T05:52:09.038Z,16.70
2023-08-18T05:54:12.807Z,16.80
2023-08-18T05:56:15.469Z,16.70
2023-08-18T05:58:18.017Z,16.70
2023-08-18T06:00:23.609Z,16.80
2023-08-18T06:02:26.339Z,16.80
2023-08-18T06:04:31.560Z,16.70
2023-08-18T06:06:35.452Z,16.80
2023-08-18T06:08:38.768Z,16.80
2023-08-18T06:10:42.139Z,16.80
2023-08-18T06:12:44.787Z,16.80
2023-08-18T06:14:47.220Z,16.90
2023-08-18T06:16:49.718Z,16.90
2023-08-18T06:18:52.150Z,16.90
2023-08-18T06:20:57.254Z,16.90
2023-08-18T06:22:59.796Z,17.00
2023-08-18T06:25:02.250Z,17.00
2023-08-18T06:27:04.764Z,17.00
2023-08-18T06:29:07.191Z,17.00
2023-08-18T06:31:09.701Z,17.10
2023-08-18T06:33:12.408Z,17.10
2023-08-18T06:35:15.284Z,17.10
2023-08-18T06:37:20.651Z,17.10
2023-08-18T06:39:23.337Z,17.20
2023-08-18T06:41:25.824Z,17.20
2023-08-18T06:43:28.322Z,17.20
2023-08-18T06:45:30.760Z,17.20
2023-08-18T06:47:34.771Z,17.30
2023-08-18T06:49:38.346Z,17.30
2023-08-18T06:51:40.872Z,17.30
2023-08-18T06:53:45.944Z,17.30
2023-08-18T06:56:02.193Z,17.30
2023-08-18T06:58:05.897Z,17.30
2023-08-18T07:00:11.311Z,17.30
2023-08-18T07:02:14.183Z,17.40
2023-08-18T07:04:16.770Z,17.40
2023-08-18T07:06:20.402Z,17.40
2023-08-18T07:08:23.308Z,17.40
2023-08-18T07:10:29.177Z,17.40
2023-08-18T07:12:32.035Z,17.40
2023-08-18T07:14:34.729Z,17.40
2023-08-18T07:16:37.300Z,17.50
2023-08-18T07:18:39.851Z,17.50
2023-08-18T07:20:43.804Z,17.50
2023-08-18T07:22:46.352Z,17.50
2023-08-18T07:24:50.222Z,17.50
2023-08-18T07:26:56.160Z,17.50
2023-08-18T07:28:58.907Z,17.60
2023-08-18T07:31:04.236Z,17.60
2023-08-18T07:33:06.861Z,17.60
2023-08-18T07:35:10.397Z,17.60
2023-08-18T07:37:12.972Z,17.70
2023-08-18T07:39:15.420Z,17.70
2023-08-18T07:41:17.860Z,17.60
2023-08-18T07:43:23.037Z,17.60
2023-08-18T07:45:25.604Z,17.60
2023-08-18T07:47:28.085Z,17.60
2023-08-18T07:49:30.658Z,17.70
2023-08-18T07:51:33.468Z,17.70
2023-08-18T07:53:38.821Z,17.70
2023-08-18T07:55:41.322Z,17.70
2023-08-18T07:57:43.814Z,17.70
2023-08-18T07:59:48.945Z,17.70
2023-08-18T08:01:51.630Z,17.80
2023-08-18T08:03:54.364Z,17.80
2023-08-18T08:05:56.932Z,17.80
2023-08-18T08:07:59.529Z,17.90
2023-08-18T08:10:04.694Z,17.90
2023-08-18T08:12:08.386Z,17.90
2023-08-18T08:14:12.767Z,17.90
2023-08-18T08:16:17.913Z,18.10
2023-08-18T08:18:20.537Z,18.10
2023-08-18T08:20:29.950Z,18.10
2023-08-18T08:22:33.140Z,18.20
2023-08-18T08:24:38.598Z,18.30
2023-08-18T08:26:41.150Z,18.30
2023-08-18T08:28:45.455Z,18.30
2023-08-18T08:30:48.094Z,18.40
2023-08-18T08:32:53.690Z,18.40
2023-08-18T08:34:56.231Z,18.50
2023-08-18T08:36:58.702Z,18.60
2023-08-18T08:39:01.824Z,18.60
2023-08-18T08:41:04.398Z,18.70
2023-08-18T08:43:06.989Z,18.70
2023-08-18T08:45:12.782Z,18.70
2023-08-18T08:47:17.945Z,18.70
2023-08-18T08:49:27.628Z,18.70
2023-08-18T08:51:36.463Z,18.80
2023-08-18T08:53:41.641Z,18.80
2023-08-18T08:55:45.640Z,18.90
2023-08-18T08:57:49.148Z,18.90
2023-08-18T08:59:51.800Z,18.90
2023-08-18T09:01:55.104Z,18.90
2023-08-18T09:03:57.951Z,18.90
2023-08-18T09:06:03.184Z,18.90
2023-08-18T09:08:06.156Z,19.00
2023-08-18T09:12:18.849Z,19.10
2023-08-18T09:14:21.414Z,19.20
2023-08-18T09:16:27.533Z,19.20
2023-08-18T09:18:33.165Z,19.20
2023-08-18T09:20:36.539Z,19.20
2023-08-18T09:22:45.582Z,19.30
2023-08-18T09:24:51.690Z,19.30
2023-08-18T09:26:54.472Z,19.40
2023-08-18T09:28:56.948Z,19.30
2023-08-18T09:30:59.547Z,19.40
2023-08-18T09:33:02.636Z,19.40
2023-08-18T09:35:12.129Z,19.40
2023-08-18T09:37:17.311Z,19.40
2023-08-18T09:39:29.232Z,19.50
2023-08-18T09:41:34.066Z,19.50
2023-08-18T09:43:56.252Z,19.50
2023-08-18T09:45:59.110Z,19.60
2023-08-18T09:48:03.341Z,19.70
2023-08-18T09:50:07.414Z,19.70
2023-08-18T09:52:10.573Z,19.70
2023-08-18T09:54:14.482Z,19.70
2023-08-18T09:56:27.217Z,19.70
2023-08-18T09:58:35.937Z,19.80
2023-08-18T10:00:44.322Z,19.90
2023-08-18T10:02:48.051Z,19.90
2023-08-18T10:04:51.624Z,19.90
2023-08-18T10:06:54.912Z,19.90
2023-08-18T10:08:58.831Z,20.00
2023-08-18T10:11:01.838Z,20.10
2023-08-18T10:13:09.742Z,20.10
2023-08-18T10:15:13.381Z,20.30
2023-08-18T10:17:17.098Z,20.40
2023-08-18T10:19:34.289Z,20.50
2023-08-18T10:21:36.897Z,20.60
2023-08-18T10:23:41.899Z,20.60
2023-08-18T10:25:45.045Z,20.70
2023-08-18T10:27:48.705Z,20.70
2023-08-18T10:29:57.914Z,20.80
2023-08-18T10:32:08.503Z,20.80
2023-08-18T10:34:18.659Z,20.90
2023-08-18T10:36:30.327Z,20.90
2023-08-18T10:38:35.618Z,20.90
2023-08-18T10:40:39.805Z,20.90
2023-08-18T10:42:43.059Z,20.90
2023-08-18T10:45:05.233Z,21.00
2023-08-18T10:47:32.460Z,21.00
2023-08-18T10:49:35.149Z,21.00
2023-08-18T10:51:37.783Z,21.00
2023-08-18T10:53:41.669Z,21.10
2023-08-18T10:55:47.298Z,21.10
2023-08-18T10:57:52.261Z,21.10
2023-08-18T10:59:54.849Z,21.20
2023-08-18T11:02:00.808Z,21.20
2023-08-18T11:04:05.008Z,21.20
2023-08-18T11:06:08.201Z,21.20
2023-08-18T11:08:11.575Z,21.20
2023-08-18T11:10:18.631Z,21.30
2023-08-18T11:12:21.360Z,21.30
2023-08-18T11:14:25.658Z,21.40
2023-08-18T11:16:28.092Z,21.60
2023-08-18T11:18:33.208Z,21.70
2023-08-18T11:20:37.457Z,21.90
2023-08-18T11:22:40.882Z,21.90
2023-08-18T11:24:44.747Z,21.80
2023-08-18T11:26:49.193Z,21.90
2023-08-18T11:28:51.936Z,21.90
2023-08-18T11:30:56.328Z,22.00
2023-08-18T11:32:59.001Z,22.00
2023-08-18T11:35:06.165Z,22.10
2023-08-18T11:37:11.849Z,22.30
2023-08-18T11:39:14.395Z,22.30
2023-08-18T11:41:16.933Z,22.50
2023-08-18T11:43:23.340Z,22.50
2023-08-18T11:45:26.743Z,22.60
2023-08-18T11:47:30.421Z,22.60
2023-08-18T11:49:32.959Z,22.70
2023-08-18T11:51:38.402Z,22.70
2023-08-18T11:53:40.885Z,22.70
2023-08-18T11:55:45.145Z,22.60
2023-08-18T11:57:48.018Z,22.70
2023-08-18T11:59:52.478Z,22.60
2023-08-18T12:01:57.047Z,22.60
2023-08-18T12:03:59.795Z,22.60
2023-08-18T12:06:02.421Z,22.70
2023-08-18T12:08:11.139Z,22.70
2023-08-18T12:10:13.773Z,22.80
2023-08-18T12:12:17.191Z,22.80
2023-08-18T12:14:20.091Z,22.80
2023-08-18T12:16:23.386Z,22.80
2023-08-18T12:18:25.871Z,22.80
2023-08-18T12:20:28.728Z,22.90
2023-08-18T12:22:31.421Z,22.90
2023-08-18T12:24:37.826Z,23.00
2023-08-18T12:26:40.390Z,23.10
2023-08-18T12:28:42.813Z,23.10
2023-08-18T12:30:45.442Z,23.20
2023-08-18T12:32:49.790Z,23.30
2023-08-18T12:34:52.742Z,23.30
2023-08-18T12:36:57.730Z,23.40
2023-08-18T12:39:00.386Z,23.50
2023-08-18T12:41:06.647Z,23.50
2023-08-18T12:43:10.390Z,23.40
2023-08-18T12:45:14.022Z,23.30
2023-08-18T12:47:16.533Z,23.30
2023-08-18T12:49:19.041Z,23.40
2023-08-18T12:51:21.426Z,23.30
2023-08-18T12:53:24.082Z,23.50
2023-08-18T12:55:26.557Z,23.50
2023-08-18T12:57:31.715Z,23.70
2023-08-18T12:59:34.221Z,23.80
2023-08-18T13:01:37.761Z,24.10
2023-08-18T13:03:40.538Z,24.30
2023-08-18T13:05:43.052Z,24.30
2023-08-18T13:07:47.499Z,24.30
2023-08-18T13:09:49.973Z,24.30
2023-08-18T13:11:52.457Z,24.10
2023-08-18T13:13:57.639Z,24.10
2023-08-18T13:16:00.202Z,24.10
2023-08-18T13:18:03.583Z,24.00
2023-08-18T13:20:08.478Z,24.00
2023-08-18T13:22:11.158Z,24.00
2023-08-18T13:24:13.683Z,24.00
2023-08-18T13:26:16.119Z,24.00
2023-08-18T13:28:18.669Z,24.00
2023-08-18T13:30:23.872Z,24.10
2023-08-18T13:32:26.388Z,24.10
2023-08-18T13:34:28.935Z,24.10
2023-08-18T13:36:31.441Z,24.00
2023-08-18T13:38:33.922Z,24.00
2023-08-18T13:40:37.666Z,24.00
2023-08-18T13:42:40.231Z,23.90
2023-08-18T13:44:42.761Z,24.00
2023-08-18T13:46:47.923Z,23.90
2023-08-18T13:48:50.379Z,24.00
2023-08-18T13:50:54.734Z,24.10
2023-08-18T13:52:58.373Z,24.10
2023-08-18T13:55:01.003Z,24.30
2023-08-18T13:57:03.660Z,24.40
2023-08-18T13:59:06.458Z,24.50
2023-08-18T14:01:09.077Z,24.60
2023-08-18T14:03:14.236Z,24.80
2023-08-18T14:05:19.020Z,25.00
2023-08-18T14:07:21.608Z,25.00
2023-08-18T14:09:27.596Z,25.10
2023-08-18T14:11:30.188Z,25.30
2023-08-18T14:13:35.299Z,25.40
2023-08-18T14:15:39.168Z,25.60
2023-08-18T14:17:46.211Z,25.70
2023-08-18T14:19:53.187Z,25.80
2023-08-18T14:21:55.709Z,25.90
2023-08-18T14:23:58.326Z,26.00
2023-08-18T14:26:00.849Z,26.00
2023-08-18T14:28:04.578Z,26.10
2023-08-18T14:30:07.648Z,26.10
2023-08-18T14:32:10.125Z,25.90
2023-08-18T14:34:12.804Z,25.80
2023-08-18T14:36:18.097Z,25.70
2023-08-18T14:38:20.571Z,25.70
2023-08-18T14:40:23.066Z,25.60
2023-08-18T14:42:26.485Z,25.40
2023-08-18T14:44:29.900Z,25.40
2023-08-18T14:46:32.373Z,25.40
2023-08-18T14:48:35.024Z,25.40
2023-08-18T14:50:37.595Z,25.30
2023-08-18T14:52:42.737Z,25.30
2023-08-18T14:54:45.244Z,25.20
2023-08-18T14:56:47.735Z,25.20
2023-08-18T14:58:50.198Z,25.20
2023-08-18T15:00:55.911Z,25.20
2023-08-18T15:02:59.409Z,25.30
2023-08-18T15:05:02.007Z,25.30
2023-08-18T15:07:05.730Z,25.40
2023-08-18T15:09:10.754Z,25.50
2023-08-18T15:11:14.076Z,25.40
2023-08-18T15:13:16.614Z,25.30
2023-08-18T15:15:19.172Z,25.30
2023-08-18T15:17:21.605Z,25.30
2023-08-18T15:19:24.908Z,25.30
2023-08-18T15:21:29.226Z,25.30
2023-08-18T15:23:31.845Z,25.20
2023-08-18T15:25:37.108Z,25.20
2023-08-18T15:27:46.577Z,25.30
2023-08-18T15:29:49.077Z,25.30
2023-08-18T15:31:51.592Z,25.30
2023-08-18T15:33:56.505Z,25.30
2023-08-18T15:36:00.037Z,25.30
2023-08-18T15:38:03.215Z,25.30
2023-08-18T15:40:07.461Z,25.30
2023-08-18T15:42:12.631Z,25.30
2023-08-18T15:44:15.198Z,25.30
2023-08-18T15:46:17.664Z,25.30
2023-08-18T15:48:20.219Z,25.30
2023-08-18T15:50:22.770Z,25.30
2023-08-18T15:52:25.308Z,25.30
2023-08-18T15:54:28.546Z,25.30
2023-08-18T15:56:31.081Z,25.30
2023-08-18T15:58:36.250Z,25.30
2023-08-18T16:00:38.864Z,25.40
2023-08-18T16:02:41.434Z,25.30
2023-08-18T16:04:44.173Z,25.40
2023-08-18T16:06:46.720Z,25.40
2023-08-18T16:08:49.221Z,25.40
2023-08-18T16:10:51.663Z,25.40
2023-08-18T16:12:54.161Z,25.30
2023-08-18T16:15:27.276Z,25.30
2023-08-18T16:17:21.630Z,25.30
2023-08-18T16:19:24.191Z,25.30
2023-08-18T16:21:26.682Z,25.20
2023-08-18T16:23:29.915Z,25.20
2023-08-18T16:25:32.429Z,25.10
2023-08-18T16:27:35.058Z,25.00
2023-08-18T16:29:37.518Z,24.90
2023-08-18T16:31:42.792Z,24.90
2023-08-18T16:33:45.429Z,24.80
2023-08-18T16:35:49.583Z,24.70
2023-08-18T16:37:52.379Z,24.60
2023-08-18T16:39:54.851Z,24.60
2023-08-18T16:41:57.354Z,24.60
2023-08-18T16:43:59.809Z,24.50
2023-08-18T16:46:02.286Z,24.50
2023-08-18T16:48:07.999Z,24.50
2023-08-18T16:50:10.907Z,24.50
2023-08-18T16:52:13.376Z,24.50
2023-08-18T16:54:16.063Z,24.50
2023-08-18T16:56:18.562Z,24.50
2023-08-18T16:58:20.977Z,24.60
2023-08-18T17:00:23.554Z,24.60
2023-08-18T17:02:26.108Z,24.60
2023-08-18T17:04:33.645Z,24.60
2023-08-18T17:06:36.539Z,24.60
2023-08-18T17:08:39.244Z,24.50
2023-08-18T17:10:41.757Z,24.50
2023-08-18T17:12:44.177Z,24.40
2023-08-18T17:14:46.693Z,24.40
2023-08-18T17:16:49.230Z,24.40
2023-08-18T17:18:51.789Z,24.30
2023-08-18T17:20:57.279Z,24.30
2023-08-18T17:22:59.864Z,24.20
2023-08-18T17:25:03.144Z,24.20
2023-08-18T17:27:05.861Z,24.20
2023-08-18T17:29:08.718Z,24.10
2023-08-18T17:31:12.469Z,24.10
2023-08-18T17:33:15.472Z,24.10
2023-08-18T17:35:18.014Z,24.00
2023-08-18T17:37:23.557Z,24.10
2023-08-18T17:39:26.170Z,24.00
2023-08-18T17:41:28.684Z,23.90
2023-08-18T17:43:31.618Z,23.90
2023-08-18T17:45:36.163Z,23.90
2023-08-18T17:47:38.701Z,23.80
2023-08-18T17:49:41.244Z,23.80
2023-08-18T17:51:45.128Z,23.70
2023-08-18T17:53:50.138Z,23.70
2023-08-18T17:55:53.970Z,23.60
2023-08-18T17:57:56.472Z,23.60
2023-08-18T17:59:59.184Z,23.60
2023-08-18T18:02:02.064Z,23.50
2023-08-18T18:04:05.826Z,23.50
2023-08-18T18:06:11.034Z,23.40
2023-08-18T18:08:14.047Z,23.40
2023-08-18T18:10:21.232Z,23.30
2023-08-18T18:12:23.724Z,23.30
2023-08-18T18:14:26.282Z,23.30
2023-08-18T18:16:28.797Z,23.30
2023-08-18T18:18:31.402Z,23.20
2023-08-18T18:20:34.200Z,23.10
2023-08-18T18:22:36.746Z,23.10
2023-08-18T18:24:39.682Z,23.10
2023-08-18T18:26:45.472Z,23.00
2023-08-18T18:28:47.888Z,22.90
2023-08-18T18:30:50.603Z,22.90
2023-08-18T18:32:53.257Z,22.80
2023-08-18T18:34:55.795Z,22.80
2023-08-18T18:36:58.282Z,22.80
2023-08-18T18:39:01.204Z,22.70
2023-08-18T18:41:03.693Z,22.70
2023-08-18T18:43:08.875Z,22.60
2023-08-18T18:45:12.006Z,22.50
2023-08-18T18:47:16.513Z,22.50
2023-08-18T18:49:20.701Z,22.50
2023-08-18T18:51:23.631Z,22.40
2023-08-18T18:53:26.110Z,22.40
2023-08-18T18:55:28.728Z,22.30
2023-08-18T18:57:31.817Z,22.20
2023-08-18T18:59:57.396Z,22.20
2023-08-18T19:01:59.891Z,22.20
2023-08-18T19:04:02.538Z,22.10
2023-08-18T19:06:05.189Z,22.10
2023-08-18T19:08:07.852Z,22.00
2023-08-18T19:10:11.290Z,22.00
2023-08-18T19:12:13.904Z,22.00
2023-08-18T19:14:16.421Z,21.90
2023-08-18T19:16:22.952Z,21.90
2023-08-18T19:18:28.089Z,21.90
2023-08-18T19:20:31.226Z,21.90
2023-08-18T19:22:34.714Z,21.90
2023-08-18T19:28:55.264Z,21.80
2023-08-18T19:31:03.506Z,21.80
2023-08-18T19:33:10.274Z,21.80
2023-08-18T19:35:16.310Z,21.80
2023-08-18T19:37:19.131Z,21.80
2023-08-18T19:39:21.612Z,21.80
2023-08-18T19:41:24.143Z,21.80
2023-08-18T19:43:26.837Z,21.70
2023-08-18T19:45:29.300Z,21.80
2023-08-18T19:47:32.020Z,21.70
2023-08-18T19:49:37.239Z,21.70
2023-08-18T19:51:39.797Z,21.70
2023-08-18T19:53:42.284Z,21.70
2023-08-18T19:55:46.712Z,21.60
2023-08-18T19:57:49.277Z,21.60
2023-08-18T19:59:51.793Z,21.50
2023-08-18T20:01:54.650Z,21.50
2023-08-18T20:03:57.198Z,21.50
2023-08-18T20:06:06.342Z,21.40
2023-08-18T20:08:12.171Z,21.40
2023-08-18T20:10:14.761Z,21.30
2023-08-18T20:12:17.249Z,21.30
2023-08-18T20:14:19.739Z,21.20
2023-08-18T20:16:22.251Z,21.20
2023-08-18T20:18:25.902Z,21.10
2023-08-18T20:20:32.679Z,21.10
2023-08-18T20:22:38.540Z,21.10
2023-08-18T20:24:41.062Z,21.10
2023-08-18T20:26:44.342Z,21.00
2023-08-18T20:28:49.486Z,21.00
2023-08-18T20:30:51.941Z,21.00
2023-08-18T20:32:57.140Z,21.00
2023-08-18T20:34:59.913Z,21.00
2023-08-18T20:37:02.495Z,21.00
2023-08-18T20:39:07.717Z,20.90
2023-08-18T20:41:12.212Z,21.00
2023-08-18T20:43:14.713Z,20.90
2023-08-18T20:45:17.218Z,20.90
2023-08-18T20:47:19.762Z,20.90
2023-08-18T20:49:22.316Z,20.90
2023-08-18T20:51:24.931Z,20.90
2023-08-18T20:53:27.515Z,20.90
2023-08-18T20:55:32.738Z,20.80
2023-08-18T20:57:35.784Z,20.80
2023-08-18T20:59:38.803Z,20.80
2023-08-18T21:01:41.241Z,20.70
2023-08-18T21:03:45.393Z,20.70
2023-08-18T21:05:48.047Z,20.60
2023-08-18T21:07:50.608Z,20.60
2023-08-18T21:09:53.962Z,20.60
2023-08-18T21:11:59.172Z,20.60
2023-08-18T21:14:01.633Z,20.60
2023-08-18T21:16:04.416Z,20.60
2023-08-18T21:18:07.071Z,20.50
2023-08-18T21:20:12.705Z,20.50
2023-08-18T21:22:15.275Z,20.50
2023-08-18T21:24:17.796Z,20.50
2023-08-18T21:26:20.521Z,20.50
2023-08-18T21:28:26.477Z,20.50
2023-08-18T21:30:28.956Z,20.60
2023-08-18T21:32:32.324Z,20.50
2023-08-18T21:34:35.029Z,20.50
2023-08-18T21:36:37.545Z,20.60
2023-08-18T21:38:39.951Z,20.60
2023-08-18T21:40:42.499Z,20.50
2023-08-18T21:42:45.123Z,20.60
2023-08-18T21:44:50.252Z,20.50
2023-08-18T21:46:52.755Z,20.60
2023-08-18T21:48:55.279Z,20.60
2023-08-18T21:50:58.880Z,20.60
2023-08-18T21:53:01.373Z,20.60
2023-08-18T21:55:04.272Z,20.60
2023-08-18T21:57:06.713Z,20.60
2023-08-18T21:59:09.694Z,20.60
2023-08-18T22:01:14.868Z,20.60
2023-08-18T22:03:18.600Z,20.50
2023-08-18T22:05:21.384Z,20.60
2023-08-18T22:07:23.885Z,20.60
2023-08-18T22:09:26.368Z,20.60
2023-08-18T22:11:32.120Z,20.60
2023-08-18T22:13:34.609Z,20.60
2023-08-18T22:15:37.306Z,20.50
2023-08-18T22:17:44.503Z,20.50
2023-08-18T22:19:47.859Z,20.50
2023-08-18T22:21:50.364Z,20.50
2023-08-18T22:23:53.978Z,20.40
2023-08-18T22:25:56.655Z,20.40
2023-08-18T22:27:59.161Z,20.40
2023-08-18T22:30:02.733Z,20.40
2023-08-18T22:32:05.831Z,20.40
2023-08-18T22:34:10.978Z,20.40
2023-08-18T22:36:13.460Z,20.40
2023-08-18T22:38:15.937Z,20.30
2023-08-18T22:40:18.561Z,20.30
2023-08-18T22:42:21.263Z,20.30
2023-08-18T22:44:23.872Z,20.30
2023-08-18T22:46:28.830Z,20.30
2023-08-18T22:48:31.383Z,20.30
2023-08-18T22:50:36.493Z,20.30
2023-08-18T22:52:38.969Z,20.30
2023-08-18T22:54:42.147Z,20.30
2023-08-18T22:56:44.623Z,20.10
2023-08-18T22:58:47.178Z,20.10
2023-08-18T23:00:50.578Z,20.10
2023-08-18T23:02:53.361Z,20.00
2023-08-18T23:04:55.892Z,20.00
2023-08-18T23:07:00.942Z,20.00
2023-08-18T23:09:04.806Z,20.00
2023-08-18T23:11:07.075Z,20.00
2023-08-18T23:13:09.575Z,19.90
2023-08-18T23:15:12.915Z,19.90
2023-08-18T23:17:16.355Z,19.90
2023-08-18T23:19:19.722Z,19.90
2023-08-18T23:21:24.301Z,19.90
2023-08-18T23:23:29.483Z,19.80
2023-08-18T23:25:32.134Z,19.80
2023-08-18T23:27:34.755Z,19.80
2023-08-18T23:29:37.262Z,19.80
2023-08-18T23:31:40.581Z,19.80
2023-08-18T23:33:44.654Z,19.80
2023-08-18T23:35:47.292Z,19.70
2023-08-18T23:37:49.793Z,19.70
2023-08-18T23:39:54.872Z,19.60
2023-08-18T23:41:57.434Z,19.60
2023-08-18T23:44:00.308Z,19.60
2023-08-18T23:46:03.677Z,19.50
2023-08-18T23:48:06.930Z,19.60
2023-08-18T23:50:10.281Z,19.60
2023-08-18T23:52:12.742Z,19.60
2023-08-18T23:54:15.448Z,19.60
2023-08-18T23:56:20.734Z,19.60
2023-08-18T23:58:23.318Z,19.60
